sensor_id;sensor_type;location;lat;lon;timestamp;temperature;humidity
18882;DHT22;9573;50.948;11.600;2022-08-19T00:00:38;20.40;99.90
18882;DHT22;9573;50.948;11.600;2022-08-19T00:03:06;20.40;99.90
18882;DHT22;9573;50.948;11.600;2022-08-19T00:05:35;20.30;99.90
18882;DHT22;9573;50.948;11.600;2022-08-19T00:08:02;20.30;99.90
18882;DHT22;9573;50.948;11.600;2022-08-19T00:10:30;20.30;99.90
18882;DHT22;9573;50.948;11.600;2022-08-19T00:12:57;20.30;99.90
18882;DHT22;9573;50.948;11.600;2022-08-19T00:15:24;20.20;99.90
18882;DHT22;9573;50.948;11.600;2022-08-19T00:17:51;20.20;99.90
18882;DHT22;9573;50.948;11.600;2022-08-19T00:20:20;20.10;99.90
18882;DHT22;9573;50.948;11.600;2022-08-19T00:22:49;20.10;99.90
18882;DHT22;9573;50.948;11.600;2022-08-19T00:25:17;20.10;99.90
18882;DHT22;9573;50.948;11.600;2022-08-19T00:27:45;20.10;99.90
18882;DHT22;9573;50.948;11.600;2022-08-19T00:30:13;20.20;99.90
18882;DHT22;9573;50.948;11.600;2022-08-19T00:32:40;20.10;99.90
18882;DHT22;9573;50.948;11.600;2022-08-19T00:35:08;20.10;99.90
18882;DHT22;9573;50.948;11.600;2022-08-19T00:37:37;20.10;99.90
18882;DHT22;9573;50.948;11.600;2022-08-19T00:40:11;20.10;99.90
18882;DHT22;9573;50.948;11.600;2022-08-19T00:42:38;20.00;99.90
18882;DHT22;9573;50.948;11.600;2022-08-19T00:45:11;20.00;99.90
18882;DHT22;9573;50.948;11.600;2022-08-19T00:47:42;20.00;99.90
18882;DHT22;9573;50.948;11.600;2022-08-19T00:50:12;20.10;99.90
18882;DHT22;9573;50.948;11.600;2022-08-19T00:52:42;20.00;99.90
18882;DHT22;9573;50.948;11.600;2022-08-19T00:55:16;19.90;99.90
18882;DHT22;9573;50.948;11.600;2022-08-19T00:57:48;19.90;99.90
18882;DHT22;9573;50.948;11.600;2022-08-19T01:00:19;19.90;99.90
18882;DHT22;9573;50.948;11.600;2022-08-19T01:02:47;19.90;99.90
18882;DHT22;9573;50.948;11.600;2022-08-19T01:05:17;19.90;99.90
18882;DHT22;9573;50.948;11.600;2022-08-19T01:07:47;19.90;99.90
18882;DHT22;9573;50.948;11.600;2022-08-19T01:10:20;19.90;99.90
18882;DHT22;9573;50.948;11.600;2022-08-19T01:12:49;19.80;99.90
18882;DHT22;9573;50.948;11.600;2022-08-19T01:15:19;19.70;99.90
18882;DHT22;9573;50.948;11.600;2022-08-19T01:17:50;19.70;99.90
18882;DHT22;9573;50.948;11.600;2022-08-19T01:20:22;19.80;99.90
18882;DHT22;9573;50.948;11.600;2022-08-19T01:22:53;19.30;99.90
18882;DHT22;9573;50.948;11.600;2022-08-19T01:25:26;19.90;99.90
18882;DHT22;9573;50.948;11.600;2022-08-19T01:27:56;19.90;99.90
18882;DHT22;9573;50.948;11.600;2022-08-19T01:30:26;20.00;99.90
18882;DHT22;9573;50.948;11.600;2022-08-19T01:32:56;20.00;99.90
18882;DHT22;9573;50.948;11.600;2022-08-19T01:35:27;20.00;99.90
18882;DHT22;9573;50.948;11.600;2022-08-19T01:38:00;20.00;99.90
18882;DHT22;9573;50.948;11.600;2022-08-19T01:40:33;20.00;99.90
18882;DHT22;9573;50.948;11.600;2022-08-19T01:43:02;20.00;99.90
18882;DHT22;9573;50.948;11.600;2022-08-19T01:45:32;20.00;99.90
18882;DHT22;9573;50.948;11.600;2022-08-19T01:48:01;19.90;99.90
18882;DHT22;9573;50.948;11.600;2022-08-19T01:50:29;19.90;99.90
18882;DHT22;9573;50.948;11.600;2022-08-19T01:52:58;19.90;99.90
18882;DHT22;9573;50.948;11.600;2022-08-19T01:55:26;19.70;99.90
18882;DHT22;9573;50.948;11.600;2022-08-19T01:57:58;19.80;99.90
18882;DHT22;9573;50.948;11.600;2022-08-19T02:00:29;19.70;99.90
18882;DHT22;9573;50.948;11.600;2022-08-19T02:02:57;19.80;99.90
18882;DHT22;9573;50.948;11.600;2022-08-19T02:05:24;19.70;99.90
18882;DHT22;9573;50.948;11.600;2022-08-19T02:07:52;19.70;99.90
18882;DHT22;9573;50.948;11.600;2022-08-19T02:10:21;19.70;99.90
18882;DHT22;9573;50.948;11.600;2022-08-19T02:12:50;19.70;99.90
18882;DHT22;9573;50.948;11.600;2022-08-19T02:15:18;19.80;99.90
18882;DHT22;9573;50.948;11.600;2022-08-19T02:17:46;19.80;99.90
18882;DHT22;9573;50.948;11.600;2022-08-19T02:20:15;19.80;99.90
18882;DHT22;9573;50.948;11.600;2022-08-19T02:22:42;19.80;99.90
18882;DHT22;9573;50.948;11.600;2022-08-19T02:25:10;19.80;99.90
18882;DHT22;9573;50.948;11.600;2022-08-19T02:27:40;19.90;99.90
18882;DHT22;9573;50.948;11.600;2022-08-19T02:30:13;19.90;99.90
18882;DHT22;9573;50.948;11.600;2022-08-19T02:32:42;20.00;99.90
18882;DHT22;9573;50.948;11.600;2022-08-19T02:35:10;19.90;99.90
18882;DHT22;9573;50.948;11.600;2022-08-19T02:37:38;20.00;99.90
18882;DHT22;9573;50.948;11.600;2022-08-19T02:40:22;20.00;99.90
18882;DHT22;9573;50.948;11.600;2022-08-19T02:42:51;20.00;99.90
18882;DHT22;9573;50.948;11.600;2022-08-19T02:45:18;19.90;99.90
18882;DHT22;9573;50.948;11.600;2022-08-19T02:47:46;19.90;99.90
18882;DHT22;9573;50.948;11.600;2022-08-19T02:50:13;19.90;99.90
18882;DHT22;9573;50.948;11.600;2022-08-19T02:52:40;19.90;99.90
18882;DHT22;9573;50.948;11.600;2022-08-19T02:55:08;19.90;99.90
18882;DHT22;9573;50.948;11.600;2022-08-19T02:57:35;19.90;99.90
18882;DHT22;9573;50.948;11.600;2022-08-19T03:00:07;19.80;99.90
18882;DHT22;9573;50.948;11.600;2022-08-19T03:02:37;19.90;99.90
18882;DHT22;9573;50.948;11.600;2022-08-19T03:05:07;19.90;99.90
18882;DHT22;9573;50.948;11.600;2022-08-19T03:07:37;19.90;99.90
18882;DHT22;9573;50.948;11.600;2022-08-19T03:10:05;20.00;99.90
18882;DHT22;9573;50.948;11.600;2022-08-19T03:12:35;20.00;99.90
18882;DHT22;9573;50.948;11.600;2022-08-19T03:15:05;20.00;99.90
18882;DHT22;9573;50.948;11.600;2022-08-19T03:17:34;20.00;99.90
18882;DHT22;9573;50.948;11.600;2022-08-19T03:20:02;20.00;99.90
18882;DHT22;9573;50.948;11.600;2022-08-19T03:22:30;20.00;99.90
18882;DHT22;9573;50.948;11.600;2022-08-19T03:24:57;20.10;99.90
18882;DHT22;9573;50.948;11.600;2022-08-19T03:27:24;20.10;99.90
18882;DHT22;9573;50.948;11.600;2022-08-19T03:29:52;20.10;99.90
18882;DHT22;9573;50.948;11.600;2022-08-19T03:32:23;20.20;99.90
18882;DHT22;9573;50.948;11.600;2022-08-19T03:34:51;20.20;99.90
18882;DHT22;9573;50.948;11.600;2022-08-19T03:37:18;20.20;99.90
18882;DHT22;9573;50.948;11.600;2022-08-19T03:39:45;20.20;99.90
18882;DHT22;9573;50.948;11.600;2022-08-19T03:42:12;20.20;99.90
18882;DHT22;9573;50.948;11.600;2022-08-19T03:44:39;20.30;99.90
18882;DHT22;9573;50.948;11.600;2022-08-19T03:47:07;20.30;99.90
18882;DHT22;9573;50.948;11.600;2022-08-19T03:49:36;20.30;99.90
18882;DHT22;9573;50.948;11.600;2022-08-19T03:52:04;20.30;99.90
18882;DHT22;9573;50.948;11.600;2022-08-19T03:54:32;20.30;99.90
18882;DHT22;9573;50.948;11.600;2022-08-19T03:57:00;20.30;99.90
18882;DHT22;9573;50.948;11.600;2022-08-19T03:59:30;20.30;99.90
18882;DHT22;9573;50.948;11.600;2022-08-19T04:02:01;20.40;99.90
18882;DHT22;9573;50.948;11.600;2022-08-19T04:04:30;20.40;99.90
18882;DHT22;9573;50.948;11.600;2022-08-19T04:06:58;20.40;99.90
18882;DHT22;9573;50.948;11.600;2022-08-19T04:09:26;20.40;99.90
18882;DHT22;9573;50.948;11.600;2022-08-19T04:11:55;20.40;99.90
18882;DHT22;9573;50.948;11.600;2022-08-19T04:14:25;20.40;99.90
18882;DHT22;9573;50.948;11.600;2022-08-19T04:16:55;20.50;99.90
18882;DHT22;9573;50.948;11.600;2022-08-19T04:19:23;20.50;99.90
18882;DHT22;9573;50.948;11.600;2022-08-19T04:21:53;20.40;99.90
18882;DHT22;9573;50.948;11.600;2022-08-19T04:24:22;20.50;99.90
18882;DHT22;9573;50.948;11.600;2022-08-19T04:26:50;20.40;99.90
18882;DHT22;9573;50.948;11.600;2022-08-19T04:29:20;20.50;99.90
18882;DHT22;9573;50.948;11.600;2022-08-19T04:31:50;20.50;99.90
18882;DHT22;9573;50.948;11.600;2022-08-19T04:34:21;20.50;99.90
18882;DHT22;9573;50.948;11.600;2022-08-19T04:36:50;20.50;99.90
18882;DHT22;9573;50.948;11.600;2022-08-19T04:39:24;20.50;99.90
18882;DHT22;9573;50.948;11.600;2022-08-19T04:42:12;20.50;99.90
18882;DHT22;9573;50.948;11.600;2022-08-19T04:44:58;20.50;99.90
18882;DHT22;9573;50.948;11.600;2022-08-19T04:47:32;20.50;99.90
18882;DHT22;9573;50.948;11.600;2022-08-19T04:50:03;20.50;99.90
18882;DHT22;9573;50.948;11.600;2022-08-19T04:52:31;20.50;99.90
18882;DHT22;9573;50.948;11.600;2022-08-19T04:54:59;20.50;99.90
18882;DHT22;9573;50.948;11.600;2022-08-19T04:57:27;20.50;99.90
18882;DHT22;9573;50.948;11.600;2022-08-19T04:59:54;20.50;99.90
18882;DHT22;9573;50.948;11.600;2022-08-19T05:02:22;20.50;99.90
18882;DHT22;9573;50.948;11.600;2022-08-19T05:04:51;20.50;99.90
18882;DHT22;9573;50.948;11.600;2022-08-19T05:07:18;20.60;99.90
18882;DHT22;9573;50.948;11.600;2022-08-19T05:09:45;20.60;99.90
18882;DHT22;9573;50.948;11.600;2022-08-19T05:12:14;20.60;99.90
18882;DHT22;9573;50.948;11.600;2022-08-19T05:14:41;20.60;99.90
18882;DHT22;9573;50.948;11.600;2022-08-19T05:17:08;20.60;99.90
18882;DHT22;9573;50.948;11.600;2022-08-19T05:19:35;20.70;99.90
18882;DHT22;9573;50.948;11.600;2022-08-19T05:22:20;20.70;99.90
18882;DHT22;9573;50.948;11.600;2022-08-19T05:25:03;20.70;99.90
18882;DHT22;9573;50.948;11.600;2022-08-19T05:27:34;20.70;99.90
18882;DHT22;9573;50.948;11.600;2022-08-19T05:30:02;20.80;99.90
18882;DHT22;9573;50.948;11.600;2022-08-19T05:32:30;20.80;99.90
18882;DHT22;9573;50.948;11.600;2022-08-19T05:34:58;20.90;99.90
18882;DHT22;9573;50.948;11.600;2022-08-19T05:37:25;21.00;99.90
18882;DHT22;9573;50.948;11.600;2022-08-19T05:39:53;21.00;99.90
18882;DHT22;9573;50.948;11.600;2022-08-19T05:42:21;21.00;99.90
18882;DHT22;9573;50.948;11.600;2022-08-19T05:44:51;21.00;99.90
18882;DHT22;9573;50.948;11.600;2022-08-19T05:47:19;21.10;99.90
18882;DHT22;9573;50.948;11.600;2022-08-19T05:49:47;21.10;99.90
18882;DHT22;9573;50.948;11.600;2022-08-19T05:52:15;21.10;99.90
18882;DHT22;9573;50.948;11.600;2022-08-19T05:54:43;21.20;99.90
18882;DHT22;9573;50.948;11.600;2022-08-19T05:57:11;21.20;99.90
18882;DHT22;9573;50.948;11.600;2022-08-19T05:59:38;21.30;99.90
18882;DHT22;9573;50.948;11.600;2022-08-19T06:02:06;21.30;99.90
18882;DHT22;9573;50.948;11.600;2022-08-19T06:04:34;21.40;99.90
18882;DHT22;9573;50.948;11.600;2022-08-19T06:07:01;21.40;99.90
18882;DHT22;9573;50.948;11.600;2022-08-19T06:09:31;21.40;99.90
18882;DHT22;9573;50.948;11.600;2022-08-19T06:11:59;21.40;99.90
18882;DHT22;9573;50.948;11.600;2022-08-19T06:14:31;21.40;99.90
18882;DHT22;9573;50.948;11.600;2022-08-19T06:17:00;21.40;99.90
18882;DHT22;9573;50.948;11.600;2022-08-19T06:19:30;21.40;99.90
18882;DHT22;9573;50.948;11.600;2022-08-19T06:21:58;21.50;99.90
18882;DHT22;9573;50.948;11.600;2022-08-19T06:24:28;21.60;99.90
18882;DHT22;9573;50.948;11.600;2022-08-19T06:26:58;21.50;99.90
18882;DHT22;9573;50.948;11.600;2022-08-19T06:29:27;21.50;99.90
18882;DHT22;9573;50.948;11.600;2022-08-19T06:31:57;21.50;99.90
18882;DHT22;9573;50.948;11.600;2022-08-19T06:34:29;21.50;99.90
18882;DHT22;9573;50.948;11.600;2022-08-19T06:36:59;21.40;99.90
18882;DHT22;9573;50.948;11.600;2022-08-19T06:39:31;21.40;99.90
18882;DHT22;9573;50.948;11.600;2022-08-19T06:42:02;21.40;99.90
18882;DHT22;9573;50.948;11.600;2022-08-19T06:44:35;21.30;99.90
18882;DHT22;9573;50.948;11.600;2022-08-19T06:47:07;21.30;99.90
18882;DHT22;9573;50.948;11.600;2022-08-19T06:49:37;21.30;99.90
18882;DHT22;9573;50.948;11.600;2022-08-19T06:52:04;21.30;99.90
18882;DHT22;9573;50.948;11.600;2022-08-19T06:54:32;21.30;99.90
18882;DHT22;9573;50.948;11.600;2022-08-19T06:57:02;21.40;99.90
18882;DHT22;9573;50.948;11.600;2022-08-19T06:59:31;21.30;99.90
18882;DHT22;9573;50.948;11.600;2022-08-19T07:02:02;21.30;99.90
18882;DHT22;9573;50.948;11.600;2022-08-19T07:04:34;21.30;99.90
18882;DHT22;9573;50.948;11.600;2022-08-19T07:07:06;21.30;99.90
18882;DHT22;9573;50.948;11.600;2022-08-19T07:09:36;21.30;99.90
18882;DHT22;9573;50.948;11.600;2022-08-19T07:12:06;21.20;99.90
18882;DHT22;9573;50.948;11.600;2022-08-19T07:14:35;21.20;99.90
18882;DHT22;9573;50.948;11.600;2022-08-19T07:17:05;21.20;99.90
18882;DHT22;9573;50.948;11.600;2022-08-19T07:19:33;21.20;99.90
18882;DHT22;9573;50.948;11.600;2022-08-19T07:22:04;21.20;99.90
18882;DHT22;9573;50.948;11.600;2022-08-19T07:24:33;21.20;99.90
18882;DHT22;9573;50.948;11.600;2022-08-19T07:27:02;21.20;99.90
18882;DHT22;9573;50.948;11.600;2022-08-19T07:29:32;21.10;99.90
18882;DHT22;9573;50.948;11.600;2022-08-19T07:32:02;21.20;99.90
18882;DHT22;9573;50.948;11.600;2022-08-19T07:34:31;21.20;99.90
18882;DHT22;9573;50.948;11.600;2022-08-19T07:37:01;21.20;99.90
18882;DHT22;9573;50.948;11.600;2022-08-19T07:39:31;21.10;99.90
18882;DHT22;9573;50.948;11.600;2022-08-19T07:42:02;21.10;99.90
18882;DHT22;9573;50.948;11.600;2022-08-19T07:44:32;21.10;99.90
18882;DHT22;9573;50.948;11.600;2022-08-19T07:47:00;21.20;99.90
18882;DHT22;9573;50.948;11.600;2022-08-19T07:49:28;21.20;99.90
18882;DHT22;9573;50.948;11.600;2022-08-19T07:52:00;21.30;99.90
18882;DHT22;9573;50.948;11.600;2022-08-19T07:54:34;21.40;99.90
18882;DHT22;9573;50.948;11.600;2022-08-19T07:57:02;21.30;99.90
18882;DHT22;9573;50.948;11.600;2022-08-19T07:59:31;21.30;99.90
18882;DHT22;9573;50.948;11.600;2022-08-19T08:01:58;21.20;99.90
18882;DHT22;9573;50.948;11.600;2022-08-19T08:04:29;21.20;99.90
18882;DHT22;9573;50.948;11.600;2022-08-19T08:07:16;21.30;99.90
18882;DHT22;9573;50.948;11.600;2022-08-19T08:10:03;21.30;99.90
18882;DHT22;9573;50.948;11.600;2022-08-19T08:12:34;21.30;99.90
18882;DHT22;9573;50.948;11.600;2022-08-19T08:15:08;21.40;99.90
18882;DHT22;9573;50.948;11.600;2022-08-19T08:17:37;21.40;99.90
18882;DHT22;9573;50.948;11.600;2022-08-19T08:20:05;21.50;99.90
18882;DHT22;9573;50.948;11.600;2022-08-19T08:22:35;21.50;99.90
18882;DHT22;9573;50.948;11.600;2022-08-19T08:25:22;21.40;99.90
18882;DHT22;9573;50.948;11.600;2022-08-19T08:27:50;21.40;99.90
18882;DHT22;9573;50.948;11.600;2022-08-19T08:30:19;21.30;99.90
18882;DHT22;9573;50.948;11.600;2022-08-19T08:32:48;21.30;99.90
18882;DHT22;9573;50.948;11.600;2022-08-19T08:35:19;21.30;99.90
18882;DHT22;9573;50.948;11.600;2022-08-19T08:37:51;21.30;99.90
18882;DHT22;9573;50.948;11.600;2022-08-19T08:40:23;21.20;99.90
18882;DHT22;9573;50.948;11.600;2022-08-19T08:42:58;21.20;99.90
18882;DHT22;9573;50.948;11.600;2022-08-19T08:45:35;21.10;99.90
18882;DHT22;9573;50.948;11.600;2022-08-19T08:48:16;21.00;99.90
18882;DHT22;9573;50.948;11.600;2022-08-19T08:50:47;20.90;99.90
18882;DHT22;9573;50.948;11.600;2022-08-19T08:53:20;20.80;99.90
18882;DHT22;9573;50.948;11.600;2022-08-19T08:55:48;20.60;99.90
18882;DHT22;9573;50.948;11.600;2022-08-19T08:58:24;20.40;99.90
18882;DHT22;9573;50.948;11.600;2022-08-19T09:00:54;20.30;99.90
18882;DHT22;9573;50.948;11.600;2022-08-19T09:03:24;20.30;99.90
18882;DHT22;9573;50.948;11.600;2022-08-19T09:06:00;20.30;99.90
18882;DHT22;9573;50.948;11.600;2022-08-19T09:08:40;20.40;99.90
18882;DHT22;9573;50.948;11.600;2022-08-19T09:11:18;20.40;99.90
18882;DHT22;9573;50.948;11.600;2022-08-19T09:13:56;20.40;99.90
18882;DHT22;9573;50.948;11.600;2022-08-19T09:16:30;20.40;99.90
18882;DHT22;9573;50.948;11.600;2022-08-19T09:19:02;20.40;99.90
18882;DHT22;9573;50.948;11.600;2022-08-19T09:21:31;20.30;99.90
18882;DHT22;9573;50.948;11.600;2022-08-19T09:24:01;20.30;99.90
18882;DHT22;9573;50.948;11.600;2022-08-19T09:26:30;20.40;99.90
18882;DHT22;9573;50.948;11.600;2022-08-19T09:28:58;20.50;99.90
18882;DHT22;9573;50.948;11.600;2022-08-19T09:31:28;20.50;99.90
18882;DHT22;9573;50.948;11.600;2022-08-19T09:33:56;20.50;99.90
18882;DHT22;9573;50.948;11.600;2022-08-19T09:36:24;20.40;99.90
18882;DHT22;9573;50.948;11.600;2022-08-19T09:38:55;20.30;99.90
18882;DHT22;9573;50.948;11.600;2022-08-19T09:41:24;20.40;99.90
18882;DHT22;9573;50.948;11.600;2022-08-19T09:43:53;20.50;99.90
18882;DHT22;9573;50.948;11.600;2022-08-19T09:46:23;20.50;99.90
18882;DHT22;9573;50.948;11.600;2022-08-19T09:48:52;20.70;99.90
18882;DHT22;9573;50.948;11.600;2022-08-19T09:51:23;20.70;99.90
18882;DHT22;9573;50.948;11.600;2022-08-19T09:53:52;20.60;99.90
18882;DHT22;9573;50.948;11.600;2022-08-19T09:56:21;20.60;99.90
18882;DHT22;9573;50.948;11.600;2022-08-19T09:58:50;20.70;99.90
18882;DHT22;9573;50.948;11.600;2022-08-19T10:01:22;20.70;99.90
18882;DHT22;9573;50.948;11.600;2022-08-19T10:03:54;20.80;99.90
18882;DHT22;9573;50.948;11.600;2022-08-19T10:06:24;20.60;99.90
18882;DHT22;9573;50.948;11.600;2022-08-19T10:08:55;20.70;99.90
18882;DHT22;9573;50.948;11.600;2022-08-19T10:11:23;20.80;99.90
18882;DHT22;9573;50.948;11.600;2022-08-19T10:13:53;20.80;99.90
18882;DHT22;9573;50.948;11.600;2022-08-19T10:16:21;20.90;99.90
18882;DHT22;9573;50.948;11.600;2022-08-19T10:18:50;21.00;99.90
18882;DHT22;9573;50.948;11.600;2022-08-19T10:21:20;21.30;99.90
18882;DHT22;9573;50.948;11.600;2022-08-19T10:23:50;21.50;99.90
18882;DHT22;9573;50.948;11.600;2022-08-19T10:26:22;21.50;99.90
18882;DHT22;9573;50.948;11.600;2022-08-19T10:28:51;21.50;99.90
18882;DHT22;9573;50.948;11.600;2022-08-19T10:31:21;21.60;99.90
18882;DHT22;9573;50.948;11.600;2022-08-19T10:33:50;21.80;99.90
18882;DHT22;9573;50.948;11.600;2022-08-19T10:36:22;21.90;99.90
18882;DHT22;9573;50.948;11.600;2022-08-19T10:38:51;21.90;99.90
18882;DHT22;9573;50.948;11.600;2022-08-19T10:41:21;21.80;99.90
18882;DHT22;9573;50.948;11.600;2022-08-19T10:43:51;21.80;99.90
18882;DHT22;9573;50.948;11.600;2022-08-19T10:46:22;21.60;99.90
18882;DHT22;9573;50.948;11.600;2022-08-19T10:48:51;21.50;99.90
18882;DHT22;9573;50.948;11.600;2022-08-19T10:51:19;21.40;99.90
18882;DHT22;9573;50.948;11.600;2022-08-19T10:54:04;21.30;99.90
18882;DHT22;9573;50.948;11.600;2022-08-19T10:56:32;21.20;99.90
18882;DHT22;9573;50.948;11.600;2022-08-19T10:59:20;21.20;99.90
18882;DHT22;9573;50.948;11.600;2022-08-19T11:01:49;21.00;99.90
18882;DHT22;9573;50.948;11.600;2022-08-19T11:04:18;21.00;99.90
18882;DHT22;9573;50.948;11.600;2022-08-19T11:06:46;21.20;99.90
18882;DHT22;9573;50.948;11.600;2022-08-19T11:09:15;21.30;99.90
18882;DHT22;9573;50.948;11.600;2022-08-19T11:11:43;21.40;99.90
18882;DHT22;9573;50.948;11.600;2022-08-19T11:14:12;21.20;99.90
18882;DHT22;9573;50.948;11.600;2022-08-19T11:16:45;21.00;99.90
18882;DHT22;9573;50.948;11.600;2022-08-19T11:19:12;20.90;99.90
18882;DHT22;9573;50.948;11.600;2022-08-19T11:21:44;20.80;99.90
18882;DHT22;9573;50.948;11.600;2022-08-19T11:24:15;20.70;99.90
18882;DHT22;9573;50.948;11.600;2022-08-19T11:26:46;20.60;99.90
18882;DHT22;9573;50.948;11.600;2022-08-19T11:29:16;20.60;99.90
18882;DHT22;9573;50.948;11.600;2022-08-19T11:31:49;20.60;99.90
18882;DHT22;9573;50.948;11.600;2022-08-19T11:34:19;20.70;99.90
18882;DHT22;9573;50.948;11.600;2022-08-19T11:36:50;20.90;99.90
18882;DHT22;9573;50.948;11.600;2022-08-19T11:39:20;21.10;99.90
18882;DHT22;9573;50.948;11.600;2022-08-19T11:41:48;21.30;99.90
18882;DHT22;9573;50.948;11.600;2022-08-19T11:44:15;21.60;99.90
18882;DHT22;9573;50.948;11.600;2022-08-19T11:46:44;21.80;99.90
18882;DHT22;9573;50.948;11.600;2022-08-19T11:49:14;22.20;99.90
18882;DHT22;9573;50.948;11.600;2022-08-19T11:51:44;22.70;99.90
18882;DHT22;9573;50.948;11.600;2022-08-19T11:54:13;23.10;99.90
18882;DHT22;9573;50.948;11.600;2022-08-19T11:56:41;23.50;99.90
18882;DHT22;9573;50.948;11.600;2022-08-19T11:59:09;23.70;99.90
18882;DHT22;9573;50.948;11.600;2022-08-19T12:01:37;24.10;99.90
18882;DHT22;9573;50.948;11.600;2022-08-19T12:04:07;24.00;99.90
18882;DHT22;9573;50.948;11.600;2022-08-19T12:06:39;24.00;99.90
18882;DHT22;9573;50.948;11.600;2022-08-19T12:09:08;24.10;99.90
18882;DHT22;9573;50.948;11.600;2022-08-19T12:11:36;24.60;99.90
18882;DHT22;9573;50.948;11.600;2022-08-19T12:14:04;25.00;99.90
18882;DHT22;9573;50.948;11.600;2022-08-19T12:16:31;25.40;99.90
18882;DHT22;9573;50.948;11.600;2022-08-19T12:18:59;25.80;99.90
18882;DHT22;9573;50.948;11.600;2022-08-19T12:21:33;26.40;99.90
18882;DHT22;9573;50.948;11.600;2022-08-19T12:24:04;26.50;99.90
18882;DHT22;9573;50.948;11.600;2022-08-19T12:26:31;26.40;99.90
18882;DHT22;9573;50.948;11.600;2022-08-19T12:28:59;26.30;99.90
18882;DHT22;9573;50.948;11.600;2022-08-19T12:31:26;26.00;99.90
18882;DHT22;9573;50.948;11.600;2022-08-19T12:33:54;26.00;99.90
18882;DHT22;9573;50.948;11.600;2022-08-19T12:36:22;25.80;99.90
18882;DHT22;9573;50.948;11.600;2022-08-19T12:38:52;25.20;99.90
18882;DHT22;9573;50.948;11.600;2022-08-19T12:41:20;24.90;99.90
18882;DHT22;9573;50.948;11.600;2022-08-19T12:43:48;24.80;99.90
18882;DHT22;9573;50.948;11.600;2022-08-19T12:46:17;24.90;99.90
18882;DHT22;9573;50.948;11.600;2022-08-19T12:48:45;25.10;99.90
18882;DHT22;9573;50.948;11.600;2022-08-19T12:51:14;25.10;99.90
18882;DHT22;9573;50.948;11.600;2022-08-19T12:53:43;25.10;99.90
18882;DHT22;9573;50.948;11.600;2022-08-19T12:56:12;25.40;99.90
18882;DHT22;9573;50.948;11.600;2022-08-19T12:58:41;25.30;99.90
18882;DHT22;9573;50.948;11.600;2022-08-19T13:01:10;25.20;99.90
18882;DHT22;9573;50.948;11.600;2022-08-19T13:03:39;24.90;99.90
18882;DHT22;9573;50.948;11.600;2022-08-19T13:06:06;24.20;99.90
18882;DHT22;9573;50.948;11.600;2022-08-19T13:08:35;24.30;99.90
18882;DHT22;9573;50.948;11.600;2022-08-19T13:11:10;24.20;99.90
18882;DHT22;9573;50.948;11.600;2022-08-19T13:13:40;24.40;99.90
18882;DHT22;9573;50.948;11.600;2022-08-19T13:16:09;24.50;99.90
18882;DHT22;9573;50.948;11.600;2022-08-19T13:18:38;24.70;99.90
18882;DHT22;9573;50.948;11.600;2022-08-19T13:21:07;24.70;99.90
18882;DHT22;9573;50.948;11.600;2022-08-19T13:23:37;24.60;99.90
18882;DHT22;9573;50.948;11.600;2022-08-19T13:26:06;24.50;99.90
18882;DHT22;9573;50.948;11.600;2022-08-19T13:28:35;24.40;99.90
18882;DHT22;9573;50.948;11.600;2022-08-19T13:31:22;24.30;99.90
18882;DHT22;9573;50.948;11.600;2022-08-19T13:34:07;24.20;99.90
18882;DHT22;9573;50.948;11.600;2022-08-19T13:36:36;24.20;99.90
18882;DHT22;9573;50.948;11.600;2022-08-19T13:39:04;24.10;99.90
18882;DHT22;9573;50.948;11.600;2022-08-19T13:41:33;24.10;99.90
18882;DHT22;9573;50.948;11.600;2022-08-19T13:44:02;24.10;99.90
18882;DHT22;9573;50.948;11.600;2022-08-19T13:46:29;24.20;99.90
18882;DHT22;9573;50.948;11.600;2022-08-19T13:48:57;24.10;99.90
18882;DHT22;9573;50.948;11.600;2022-08-19T13:51:24;24.20;99.90
18882;DHT22;9573;50.948;11.600;2022-08-19T13:53:51;24.00;99.90
18882;DHT22;9573;50.948;11.600;2022-08-19T13:56:19;23.80;99.90
18882;DHT22;9573;50.948;11.600;2022-08-19T13:58:46;23.90;99.90
18882;DHT22;9573;50.948;11.600;2022-08-19T14:01:20;23.80;99.90
18882;DHT22;9573;50.948;11.600;2022-08-19T14:03:48;23.80;99.90
18882;DHT22;9573;50.948;11.600;2022-08-19T14:06:15;23.80;99.90
18882;DHT22;9573;50.948;11.600;2022-08-19T14:08:43;23.90;99.90
18882;DHT22;9573;50.948;11.600;2022-08-19T14:11:11;23.80;99.90
18882;DHT22;9573;50.948;11.600;2022-08-19T14:13:38;23.80;99.90
18882;DHT22;9573;50.948;11.600;2022-08-19T14:16:09;23.80;99.90
18882;DHT22;9573;50.948;11.600;2022-08-19T14:18:39;23.80;99.90
18882;DHT22;9573;50.948;11.600;2022-08-19T14:21:07;23.70;99.90
18882;DHT22;9573;50.948;11.600;2022-08-19T14:23:35;23.80;99.90
18882;DHT22;9573;50.948;11.600;2022-08-19T14:26:11;23.70;99.90
18882;DHT22;9573;50.948;11.600;2022-08-19T14:28:40;23.60;99.90
18882;DHT22;9573;50.948;11.600;2022-08-19T14:31:07;23.60;99.90
18882;DHT22;9573;50.948;11.600;2022-08-19T14:33:34;23.70;99.90
18882;DHT22;9573;50.948;11.600;2022-08-19T14:36:04;23.70;99.90
18882;DHT22;9573;50.948;11.600;2022-08-19T14:38:31;23.60;99.90
18882;DHT22;9573;50.948;11.600;2022-08-19T14:41:10;23.50;99.90
18882;DHT22;9573;50.948;11.600;2022-08-19T14:43:41;23.30;99.90
18882;DHT22;9573;50.948;11.600;2022-08-19T14:46:11;23.30;99.90
18882;DHT22;9573;50.948;11.600;2022-08-19T14:48:40;23.40;99.90
18882;DHT22;9573;50.948;11.600;2022-08-19T14:51:08;23.30;99.90
18882;DHT22;9573;50.948;11.600;2022-08-19T14:53:36;23.20;99.90
18882;DHT22;9573;50.948;11.600;2022-08-19T14:56:07;23.20;99.90
18882;DHT22;9573;50.948;11.600;2022-08-19T14:58:35;23.40;99.90
18882;DHT22;9573;50.948;11.600;2022-08-19T15:01:03;23.50;99.90
18882;DHT22;9573;50.948;11.600;2022-08-19T15:03:30;23.60;99.90
18882;DHT22;9573;50.948;11.600;2022-08-19T15:05:59;23.70;99.90
18882;DHT22;9573;50.948;11.600;2022-08-19T15:08:30;23.80;99.90
18882;DHT22;9573;50.948;11.600;2022-08-19T15:10:59;23.80;99.90
18882;DHT22;9573;50.948;11.600;2022-08-19T15:13:28;23.80;99.90
18882;DHT22;9573;50.948;11.600;2022-08-19T15:15:56;23.80;99.90
18882;DHT22;9573;50.948;11.600;2022-08-19T15:18:23;23.90;99.90
18882;DHT22;9573;50.948;11.600;2022-08-19T15:20:51;23.90;99.90
18882;DHT22;9573;50.948;11.600;2022-08-19T15:23:19;23.90;99.90
18882;DHT22;9573;50.948;11.600;2022-08-19T15:25:48;23.60;99.90
18882;DHT22;9573;50.948;11.600;2022-08-19T15:28:19;23.60;99.90
18882;DHT22;9573;50.948;11.600;2022-08-19T15:30:46;23.60;99.90
18882;DHT22;9573;50.948;11.600;2022-08-19T15:33:13;23.10;99.90
18882;DHT22;9573;50.948;11.600;2022-08-19T15:35:43;22.90;99.90
18882;DHT22;9573;50.948;11.600;2022-08-19T15:38:11;22.50;99.90
18882;DHT22;9573;50.948;11.600;2022-08-19T15:40:40;22.50;99.90
18882;DHT22;9573;50.948;11.600;2022-08-19T15:43:09;22.60;99.90
18882;DHT22;9573;50.948;11.600;2022-08-19T15:45:36;22.40;99.90